Dolce Far Niente — CFK9784 — position and weather

sailwx.info

Track history (hours):
 
Tides and Currents Weather Stations Pressure Air Temp Water Temp Dewpoint Dewpoint Depression Visibility Wind Speed Wind Dir Waves Ship Positions

Dolce Far Niente

Last reported at 2016-Jul-24 00:15 UTC. Time now 2016-Jul-30 07:19 UTC.
Position N 48°50' W 123°24'.

Type: Pleasure craft. MMSI: 316020002.

Date/timePositionNaut miles runAvg speedWind from/ knotsBaromVisibWave heightAir tempDewpointWater temp
2016-Jul-24 00:15N 48°50' W 123°24'0 0.0
2016-Jul-23 22:24N 48°50' W 123°24'4 3.8
2016-Jul-23 21:20N 48°53' W 123°28'6015.3
2016-Jul-23 17:25N 49°42' W 124°21'1516.0
2016-Jul-23 16:29N 49°50' W 124°41'1516.2
2016-Jul-23 15:33N 49°59' W 124°59'7 0.4
2016-Jul-22 21:32N 50°06' W 125°01'6 6.0
2016-Jul-22 20:32N 50°12' W 125°02'1412.8
2016-Jul-22 19:25N 50°25' W 125°13'66 2.4
2016-Jul-21 16:11N 50°53' W 126°46'  
2016-Jul-15 16:28N 50°53' W 127°19'1112.5
2016-Jul-15 15:33N 51°01' W 127°32'3 0.2
2016-Jul-15 04:27N 51°03' W 127°30'0 0.0
2016-Jul-15 03:33N 51°03' W 127°30'0 0.0
2016-Jul-15 02:27N 51°03' W 127°30'6 6.1
2016-Jul-15 01:33N 51°03' W 127°39'  
Track history (hours):
 
Tides and Currents Weather Stations Pressure Air Temp Water Temp Dewpoint Dewpoint Depression Visibility Wind Speed Wind Dir Waves Ship Positions

Dolce Far Niente

Last reported at 2016-Jul-24 00:15 UTC. Time now 2016-Jul-30 07:19 UTC.
Position N 48°50' W 123°24'.

Type: Pleasure craft. MMSI: 316020002.

Date/timePositionNaut miles runAvg speedWind from/ knotsBaromVisibWave heightAir tempDewpointWater temp
2016-Jul-24 00:15N 48°50' W 123°24'0 0.0
2016-Jul-23 22:24N 48°50' W 123°24'4 3.8
2016-Jul-23 21:20N 48°53' W 123°28'6015.3
2016-Jul-23 17:25N 49°42' W 124°21'1516.0
2016-Jul-23 16:29N 49°50' W 124°41'1516.2
2016-Jul-23 15:33N 49°59' W 124°59'7 0.4
2016-Jul-22 21:32N 50°06' W 125°01'6 6.0
2016-Jul-22 20:32N 50°12' W 125°02'1412.8
2016-Jul-22 19:25N 50°25' W 125°13'66 2.4
2016-Jul-21 16:11N 50°53' W 126°46'  
2016-Jul-15 16:28N 50°53' W 127°19'1112.5
2016-Jul-15 15:33N 51°01' W 127°32'3 0.2
2016-Jul-15 04:27N 51°03' W 127°30'0 0.0
2016-Jul-15 03:33N 51°03' W 127°30'0 0.0
2016-Jul-15 02:27N 51°03' W 127°30'6 6.1
2016-Jul-15 01:33N 51°03' W 127°39'  

Dump ship's entire track history